Time;durP1;ratioP1;P1;durP2;ratioP2;P2;SDS_P1;SDS_P2;PMS_P1;PMS_P2;Temp;Humidity;BMP_temperature;BMP_pressure;BME280_temperature;BME280_humidity;BME280_pressure;Samples;Min_cycle;Max_cycle;Signal;HPM_P1;HPM_P2
2022/11/03 00:01:37;;;;;;;18.77;4.80;;;;;;;13.09;65.64;101066.38;4982151;28;120231;-75
2022/11/03 00:04:08;;;;;;;19.27;4.97;;;;;;;13.09;65.46;101075.41;4980083;28;119938;-75
2022/11/03 00:06:34;;;;;;;18.00;4.67;;;;;;;13.10;65.23;101070.66;4974368;28;119874;-75
2022/11/03 00:09:03;;;;;;;15.90;4.63;;;;;;;13.12;65.15;101065.47;4981308;28;119930;-75
2022/11/03 00:11:32;;;;;;;15.97;4.70;;;;;;;13.12;65.52;101057.19;4976509;28;119832;-75
2022/11/03 00:13:58;;;;;;;18.25;4.38;;;;;;;13.13;65.28;101050.47;4980058;28;119796;-75
2022/11/03 00:16:24;;;;;;;17.10;4.88;;;;;;;13.12;65.43;101044.19;4987300;28;120034;-75
2022/11/03 00:18:52;;;;;;;16.77;4.63;;;;;;;13.18;65.11;101038.84;4975775;28;119675;-75
2022/11/03 00:21:18;;;;;;;16.03;4.53;;;;;;;13.17;64.53;101038.09;4978049;28;119597;-74
2022/11/03 00:23:44;;;;;;;17.90;4.85;;;;;;;13.19;64.48;101040.38;4988024;28;119723;-75
2022/11/03 00:26:17;;;;;;;14.50;4.50;;;;;;;13.19;65.16;101032.88;4972686;28;119497;-75
2022/11/03 00:28:44;;;;;;;17.17;4.90;;;;;;;13.18;64.47;101030.59;4979778;28;120222;-76
2022/11/03 00:31:12;;;;;;;17.98;4.70;;;;;;;13.20;64.58;101031.66;4976306;28;119535;-76
2022/11/03 00:33:39;;;;;;;17.77;4.72;;;;;;;13.20;64.93;101033.66;4978270;28;119453;-76
2022/11/03 00:36:07;;;;;;;18.95;4.63;;;;;;;13.20;64.90;101030.91;4977494;28;122557;-75
2022/11/03 00:38:33;;;;;;;20.38;4.97;;;;;;;13.21;64.85;101021.41;4973005;28;119917;-75
2022/11/03 00:41:01;;;;;;;17.20;4.63;;;;;;;13.19;65.14;101010.84;4987542;28;119563;-75
2022/11/03 00:43:29;;;;;;;16.17;4.70;;;;;;;13.22;65.40;101006.41;4981238;28;119943;-75
2022/11/03 00:45:55;;;;;;;15.43;4.57;;;;;;;13.25;64.82;101007.47;4973837;28;119529;-76
2022/11/03 00:48:33;;;;;;;17.30;4.63;;;;;;;13.27;64.50;101005.06;4973232;28;120265;-75
2022/11/03 00:51:07;;;;;;;17.53;4.70;;;;;;;13.27;64.53;101005.81;4979285;28;119630;-75
2022/11/03 00:53:35;;;;;;;16.30;4.63;;;;;;;13.27;64.56;100992.03;4975088;28;119419;-75
2022/11/03 00:56:01;;;;;;;14.93;4.40;;;;;;;13.29;64.56;101000.59;4977097;28;120054;-74
2022/11/03 00:58:27;;;;;;;16.27;4.20;;;;;;;13.34;64.69;100999.22;4974684;28;119571;-75
2022/11/03 01:01:06;;;;;;;17.87;4.33;;;;;;;13.36;64.30;101000.28;4973410;28;119326;-75
2022/11/03 01:03:34;;;;;;;15.30;4.25;;;;;;;13.40;64.34;100989.84;4978887;28;122279;-75
2022/11/03 01:08:45;;;;;;;16.52;4.22;;;;;;;13.43;64.16;100983.41;4976442;28;120034;-76
2022/11/03 01:13:59;;;;;;;17.42;4.38;;;;;;;13.46;63.80;100970.72;4962780;28;120550;-76
2022/11/03 01:16:28;;;;;;;14.43;4.10;;;;;;;13.47;64.14;100969.47;4974686;28;121829;-76
2022/11/03 01:18:54;;;;;;;15.20;4.10;;;;;;;13.48;63.95;100968.25;4979933;28;119598;-76
2022/11/03 01:21:20;;;;;;;17.70;4.53;;;;;;;13.51;63.66;100959.84;4977434;28;119713;-76
2022/11/03 01:23:46;;;;;;;16.63;4.20;;;;;;;13.52;63.87;100955.84;4961120;28;119678;-76
2022/11/03 01:26:13;;;;;;;14.80;4.10;;;;;;;13.51;63.66;100951.56;4986114;28;119389;-76
2022/11/03 01:28:42;;;;;;;15.00;4.20;;;;;;;13.51;63.77;100948.81;4974257;28;120229;-76
2022/11/03 01:31:14;;;;;;;13.82;3.83;;;;;;;13.52;63.91;100952.34;4979477;28;119466;-76
2022/11/03 01:33:40;;;;;;;15.40;4.07;;;;;;;13.54;63.44;100949.88;4975286;28;119497;-76
2022/11/03 01:36:07;;;;;;;16.80;4.10;;;;;;;13.56;63.28;100949.41;4971360;28;120045;-76
2022/11/03 01:38:34;;;;;;;20.58;4.53;;;;;;;13.57;63.86;100939.91;4982789;28;119879;-76
2022/11/03 01:41:02;;;;;;;17.40;4.22;;;;;;;13.57;64.10;100943.44;4974132;28;121222;-76
2022/11/03 01:43:30;;;;;;;15.90;4.30;;;;;;;13.61;63.58;100938.53;4977458;28;120510;-76
2022/11/03 01:46:08;;;;;;;16.17;4.32;;;;;;;13.64;63.20;100936.81;4975515;28;119847;-77
2022/11/03 01:48:37;;;;;;;14.88;4.22;;;;;;;13.63;63.39;100925.03;4975886;28;119669;-75
2022/11/03 01:51:06;;;;;;;17.17;3.97;;;;;;;13.67;63.23;100935.88;4983257;28;119936;-76
2022/11/03 01:53:34;;;;;;;14.48;4.10;;;;;;;13.67;62.91;100936.66;4978561;28;119805;-75
2022/11/03 01:56:01;;;;;;;15.18;3.90;;;;;;;13.67;63.12;100931.13;4983836;28;120275;-75
2022/11/03 01:58:30;;;;;;;13.53;3.70;;;;;;;13.68;63.03;100926.38;4978604;28;120241;-75
2022/11/03 02:00:58;;;;;;;16.52;4.10;;;;;;;13.69;63.17;100928.69;4977780;27;119741;-76
2022/11/03 02:03:27;;;;;;;17.25;4.35;;;;;;;13.70;62.93;100921.94;4982177;28;120052;-76
2022/11/03 02:05:55;;;;;;;15.02;4.00;;;;;;;13.68;62.47;100918.88;4973538;28;119852;-76
2022/11/03 02:08:23;;;;;;;16.10;4.20;;;;;;;13.68;62.99;100920.88;4971529;28;119503;-76
2022/11/03 02:10:52;;;;;;;16.07;3.93;;;;;;;13.64;62.80;100915.53;4984317;28;119890;-75
2022/11/03 02:13:22;;;;;;;13.75;3.95;;;;;;;13.66;63.05;100918.59;4976328;28;120758;-76
2022/11/03 02:15:50;;;;;;;15.20;4.27;;;;;;;13.67;62.73;100909.09;4982382;28;119765;-76
2022/11/03 02:18:18;;;;;;;17.17;4.40;;;;;;;13.66;63.16;100910.31;4981134;28;120012;-76
2022/11/03 02:20:51;;;;;;;15.98;4.40;;;;;;;13.63;62.92;100908.50;4978513;28;119690;-76
2022/11/03 02:23:21;;;;;;;14.95;4.03;;;;;;;13.59;63.39;100904.38;4973011;28;119918;-76
2022/11/03 02:25:57;;;;;;;19.83;4.28;;;;;;;13.62;63.44;100908.97;4971960;28;120064;-76
2022/11/03 02:28:28;;;;;;;17.70;4.10;;;;;;;13.61;63.13;100907.44;4975918;28;119845;-76
2022/11/03 02:31:41;;;;;;;18.00;4.50;;;;;;;13.61;62.62;100904.69;4963979;28;119888;-76
2022/11/03 02:34:15;;;;;;;14.53;4.20;;;;;;;13.61;62.93;100910.97;4982503;28;119843;-75
2022/11/03 02:36:48;;;;;;;14.63;4.00;;;;;;;13.63;63.07;100913.25;4976752;28;120435;-76
2022/11/03 02:39:23;;;;;;;14.40;3.90;;;;;;;13.64;62.56;100909.25;4981038;28;119459;-76
2022/11/03 02:41:53;;;;;;;13.45;4.03;;;;;;;13.66;63.40;100904.03;4977764;28;119996;-76
2022/11/03 02:44:19;;;;;;;18.83;4.57;;;;;;;13.65;62.78;100886.75;4979534;28;119896;-76
2022/11/03 02:46:57;;;;;;;15.45;3.92;;;;;;;13.68;63.43;100882.28;4977431;28;119829;-76
2022/11/03 02:49:23;;;;;;;15.90;4.22;;;;;;;13.68;63.24;100876.78;4979598;28;119908;-76
2022/11/03 02:52:04;;;;;;;14.83;4.20;;;;;;;13.67;62.74;100873.25;4974859;28;119711;-76
2022/11/03 02:54:39;;;;;;;15.20;4.13;;;;;;;13.67;63.31;100858.72;4977049;28;119660;-76
2022/11/03 02:57:27;;;;;;;15.95;4.00;;;;;;;13.62;62.66;100856.59;4981753;28;119747;-75
2022/11/03 03:00:02;;;;;;;20.08;4.40;;;;;;;13.56;62.69;100847.44;4977462;28;119482;-76
2022/11/03 03:02:57;;;;;;;17.90;4.20;;;;;;;13.52;62.40;100842.09;4979283;28;119518;-75
2022/11/03 03:05:26;;;;;;;14.32;3.90;;;;;;;13.46;62.67;100830.94;4974503;28;119825;-76
2022/11/03 03:07:57;;;;;;;13.80;4.17;;;;;;;13.42;62.61;100846.88;4981701;28;119435;-75
2022/11/03 03:10:27;;;;;;;17.50;4.13;;;;;;;13.42;63.34;100851.63;4960862;28;120399;-76
2022/11/03 03:12:57;;;;;;;16.40;4.13;;;;;;;13.40;62.84;100846.59;4971268;28;119964;-76
2022/11/03 03:15:44;;;;;;;16.02;4.05;;;;;;;13.39;63.39;100833.28;4974502;28;119420;-76
2022/11/03 03:18:18;;;;;;;15.10;4.03;;;;;;;13.35;63.02;100832.69;4978398;28;120001;-76
2022/11/03 03:21:10;;;;;;;15.23;4.07;;;;;;;13.37;63.92;100835.72;4977616;28;119233;-75
2022/11/03 03:23:46;;;;;;;18.37;4.07;;;;;;;13.34;62.68;100837.44;4971680;28;119447;-76
2022/11/03 03:26:33;;;;;;;15.73;4.30;;;;;;;13.30;63.49;100845.09;4978174;28;120180;-75
2022/11/03 03:29:05;;;;;;;16.63;4.20;;;;;;;13.34;63.92;100834.69;4979127;28;119829;-76
2022/11/03 03:31:36;;;;;;;19.55;4.68;;;;;;;13.36;63.10;100831.44;4982601;28;120483;-75
2022/11/03 03:34:04;;;;;;;17.40;4.00;;;;;;;13.35;63.28;100838.97;4976785;28;120282;-75
2022/11/03 03:36:32;;;;;;;12.50;4.00;;;;;;;13.35;63.23;100821.66;4974192;28;119521;-75
2022/11/03 03:39:02;;;;;;;15.65;3.88;;;;;;;13.39;63.29;100838.78;4974489;28;119512;-75
2022/11/03 03:41:31;;;;;;;17.13;4.30;;;;;;;13.40;63.52;100824.53;4977971;28;121141;-75
2022/11/03 03:44:07;;;;;;;17.67;4.07;;;;;;;13.39;63.15;100817.50;4971263;28;120619;-75
2022/11/03 03:46:58;;;;;;;17.88;4.50;;;;;;;13.36;63.03;100807.41;4971182;28;119890;-74
2022/11/03 03:49:24;;;;;;;16.23;4.05;;;;;;;13.36;63.40;100801.91;4967359;28;120073;-74
2022/11/03 03:51:50;;;;;;;13.20;4.18;;;;;;;13.31;62.79;100805.31;4970055;28;119537;-76
2022/11/03 03:54:16;;;;;;;15.95;3.92;;;;;;;13.36;63.35;100817.69;4978480;28;119837;-76
2022/11/03 03:56:55;;;;;;;14.15;3.92;;;;;;;13.39;63.29;100816.75;4973457;28;119359;-76
2022/11/03 03:59:21;;;;;;;18.85;4.50;;;;;;;13.39;63.34;100806.47;4977864;28;119392;-78
2022/11/03 04:01:46;;;;;;;15.15;3.85;;;;;;;13.46;63.70;100821.91;4976893;28;120182;-76
2022/11/03 04:04:12;;;;;;;14.07;3.80;;;;;;;13.49;63.15;100823.75;4977855;28;119572;-75
2022/11/03 04:06:38;;;;;;;18.70;4.25;;;;;;;13.51;63.28;100818.53;4977800;28;119802;-75
2022/11/03 04:09:03;;;;;;;16.63;3.87;;;;;;;13.54;63.45;100814.09;4974842;28;119442;-75
2022/11/03 04:22:30;;;;;;;16.48;3.88;;;;;;;13.41;62.95;100795.75;4984181;28;119922;-75
2022/11/03 04:24:58;;;;;;;14.90;3.97;;;;;;;13.37;62.13;100792.41;4978024;28;119546;-75
2022/11/03 04:27:32;;;;;;;15.30;4.00;;;;;;;13.28;63.05;100786.97;4976100;28;119525;-75
2022/11/03 04:30:06;;;;;;;15.23;3.95;;;;;;;13.31;62.95;100793.53;4972950;28;119801;-76
2022/11/03 04:32:33;;;;;;;15.77;4.00;;;;;;;13.31;63.02;100783.28;4975494;28;119720;-75
2022/11/03 04:35:00;;;;;;;16.92;4.47;;;;;;;13.31;62.79;100785.25;4974172;28;119332;-76
2022/11/03 04:37:27;;;;;;;16.92;4.13;;;;;;;13.29;63.48;100780.22;4980677;28;120333;-76
2022/11/03 04:40:01;;;;;;;16.80;4.00;;;;;;;13.33;62.85;100780.81;4979804;28;119550;-75
2022/11/03 04:42:31;;;;;;;13.85;3.72;;;;;;;13.33;62.84;100785.56;4978352;28;121202;-76
2022/11/03 04:45:01;;;;;;;17.00;4.07;;;;;;;13.34;63.39;100781.56;4981069;28;121428;-75
2022/11/03 04:47:27;;;;;;;17.15;4.35;;;;;;;13.35;63.49;100783.84;4985537;28;119750;-76
2022/11/03 04:49:53;;;;;;;14.70;4.05;;;;;;;13.32;63.15;100784.78;4978715;28;119538;-76
2022/11/03 04:52:20;;;;;;;16.00;3.80;;;;;;;13.35;63.56;100783.84;4985902;28;120538;-76
2022/11/03 04:54:49;;;;;;;17.52;4.20;;;;;;;13.36;62.71;100779.88;4984169;28;119841;-76
2022/11/03 04:57:16;;;;;;;15.75;4.40;;;;;;;13.35;63.29;100781.09;4991480;28;119323;-75
2022/11/03 04:59:45;;;;;;;15.23;3.67;;;;;;;13.34;62.81;100776.81;4982379;28;119756;-76
2022/11/03 05:02:14;;;;;;;15.70;3.85;;;;;;;13.33;63.03;100775.28;4979022;27;119505;-75
2022/11/03 05:04:41;;;;;;;12.63;3.72;;;;;;;13.34;62.76;100774.06;4980123;28;119585;-76
2022/11/03 05:07:29;;;;;;;16.60;4.23;;;;;;;13.29;63.34;100773.94;4977955;28;119649;-75
2022/11/03 05:09:55;;;;;;;17.65;4.10;;;;;;;13.29;63.03;100773.94;4983396;28;119936;-76
2022/11/03 05:12:24;;;;;;;14.10;3.72;;;;;;;13.28;63.16;100772.41;4989236;28;119687;-75
2022/11/03 05:14:51;;;;;;;15.18;4.20;;;;;;;13.29;63.23;100758.19;4984595;28;119566;-76
2022/11/03 05:17:25;;;;;;;17.60;4.00;;;;;;;13.25;63.08;100760.34;4983553;28;119774;-75
2022/11/03 05:19:55;;;;;;;16.40;3.92;;;;;;;13.26;63.40;100756.38;4999295;28;120137;-75
2022/11/03 05:22:25;;;;;;;13.68;3.47;;;;;;;13.25;63.27;100757.59;4983379;28;119860;-75
2022/11/03 05:24:57;;;;;;;14.33;4.00;;;;;;;13.26;63.08;100759.13;4989636;28;119335;-76
2022/11/03 05:27:23;;;;;;;17.60;4.38;;;;;;;13.31;63.67;100754.97;4967486;28;120443;-75
2022/11/03 05:29:50;;;;;;;17.30;4.03;;;;;;;13.29;63.15;100749.91;4975656;28;119519;-75
2022/11/03 05:32:27;;;;;;;14.30;4.00;;;;;;;13.30;62.97;100743.19;4983950;28;119314;-75
2022/11/03 05:34:54;;;;;;;14.15;3.90;;;;;;;13.28;63.34;100751.16;4982541;28;120071;-75
2022/11/03 05:37:27;;;;;;;19.60;4.05;;;;;;;13.30;63.37;100742.41;4974000;28;119816;-76
2022/11/03 05:39:56;;;;;;;17.58;4.03;;;;;;;13.29;63.32;100735.38;4978432;28;119676;-75
2022/11/03 05:42:22;;;;;;;16.37;3.93;;;;;;;13.27;63.15;100741.34;4979574;28;121194;-75
2022/11/03 05:44:50;;;;;;;16.47;3.80;;;;;;;13.22;63.04;100719.94;4989892;27;119537;-76
2022/11/03 05:47:31;;;;;;;14.55;3.92;;;;;;;13.24;63.23;100723.00;4981744;27;119537;-74
2022/11/03 05:50:21;;;;;;;18.73;3.85;;;;;;;13.28;63.57;100731.88;4985790;28;119875;-74
2022/11/03 05:52:50;;;;;;;17.45;4.00;;;;;;;13.32;63.08;100737.19;4989821;28;119925;-76
2022/11/03 05:55:29;;;;;;;16.20;4.00;;;;;;;13.32;62.96;100724.19;4988511;28;119412;-76
2022/11/03 05:57:58;;;;;;;15.03;3.63;;;;;;;13.32;63.41;100726.94;4991033;28;119635;-76
2022/11/03 06:00:28;;;;;;;16.55;3.92;;;;;;;13.34;63.48;100726.47;4986730;28;119701;-76
2022/11/03 06:02:58;;;;;;;19.45;4.03;;;;;;;13.32;63.25;100704.13;4979428;28;119459;-75
2022/11/03 06:05:25;;;;;;;14.23;3.65;;;;;;;13.38;63.37;100721.53;4994204;28;119799;-76
2022/11/03 06:07:58;;;;;;;17.50;3.95;;;;;;;13.39;63.24;100732.09;4985775;28;119651;-75
2022/11/03 06:10:30;;;;;;;15.10;3.90;;;;;;;13.40;62.88;100725.34;4989536;27;119911;-75
2022/11/03 06:13:04;;;;;;;16.55;4.10;;;;;;;13.42;63.14;100733.91;4988668;28;119669;-76
2022/11/03 06:15:33;;;;;;;12.63;3.63;;;;;;;13.47;63.76;100733.25;4986264;28;120277;-76
2022/11/03 06:18:09;;;;;;;13.85;3.95;;;;;;;13.52;63.59;100737.38;4996476;28;119942;-75
2022/11/03 06:20:35;;;;;;;14.80;3.60;;;;;;;13.56;63.75;100739.97;4994492;27;119324;-76
2022/11/03 06:23:01;;;;;;;15.10;3.80;;;;;;;13.64;63.40;100738.38;4988509;28;119403;-74
2022/11/03 06:25:31;;;;;;;14.55;3.63;;;;;;;13.67;62.67;100732.69;4981282;28;120122;-76
2022/11/03 06:28:33;;;;;;;16.15;3.58;;;;;;;13.73;62.84;100738.31;4980120;28;119851;-75
2022/11/03 06:30:59;;;;;;;13.98;3.30;;;;;;;13.76;62.17;100734.63;4982995;28;120004;-75
2022/11/03 06:33:28;;;;;;;14.10;3.42;;;;;;;13.79;62.31;100725.41;4986233;28;119582;-75
2022/11/03 06:36:18;;;;;;;18.90;3.80;;;;;;;13.83;62.53;100724.00;4990478;28;119527;-76
2022/11/03 06:38:51;;;;;;;15.35;3.70;;;;;;;13.87;62.15;100718.28;4981756;28;120246;-76
2022/11/03 06:41:23;;;;;;;14.00;3.78;;;;;;;13.91;61.98;100727.13;4983075;28;119697;-76
2022/11/03 06:43:50;;;;;;;13.63;3.40;;;;;;;13.96;62.13;100726.50;4989344;28;121397;-76
2022/11/03 06:46:24;;;;;;;12.30;3.50;;;;;;;14.00;61.50;100718.03;4991180;28;119655;-75
2022/11/03 06:48:52;;;;;;;13.70;3.60;;;;;;;14.01;61.99;100706.53;4979941;28;120128;-76
2022/11/03 06:51:24;;;;;;;16.67;3.60;;;;;;;14.04;61.73;100708.34;4977246;28;119931;-75
2022/11/03 06:53:51;;;;;;;15.75;3.58;;;;;;;14.07;61.79;100699.13;4990511;28;119626;-76
2022/11/03 06:56:38;;;;;;;15.83;3.73;;;;;;;14.09;61.96;100706.91;4997138;27;119386;-75
2022/11/03 06:59:23;;;;;;;13.32;3.47;;;;;;;14.11;61.84;100698.94;4979170;28;119866;-76
2022/11/03 07:01:54;;;;;;;12.77;3.80;;;;;;;14.13;61.43;100697.22;4992253;28;119251;-76
2022/11/03 07:04:22;;;;;;;13.65;3.60;;;;;;;14.18;62.05;100697.78;4986976;28;119273;-74
2022/11/03 07:06:58;;;;;;;12.65;3.50;;;;;;;14.22;61.43;100703.91;4985921;28;119536;-76
2022/11/03 07:09:27;;;;;;;13.13;3.50;;;;;;;14.26;61.56;100710.00;4977775;28;120025;-75
2022/11/03 07:11:59;;;;;;;14.17;3.73;;;;;;;14.27;61.74;100706.75;4977820;28;121190;-76
2022/11/03 07:14:30;;;;;;;14.60;3.80;;;;;;;14.31;61.32;100706.56;4974288;28;119386;-76
2022/11/03 07:16:58;;;;;;;13.85;3.45;;;;;;;14.34;61.85;100706.38;4981063;28;120443;-75
2022/11/03 07:19:32;;;;;;;15.13;3.90;;;;;;;14.41;61.27;100705.22;4985163;28;120081;-76
2022/11/03 07:22:00;;;;;;;12.43;3.30;;;;;;;14.44;61.13;100709.84;4984442;28;119433;-76
2022/11/03 07:24:30;;;;;;;14.02;3.78;;;;;;;14.49;61.38;100709.16;4995798;28;120954;-76
2022/11/03 07:27:12;;;;;;;12.23;3.15;;;;;;;14.52;61.54;100702.69;4979593;28;119411;-76
2022/11/03 07:29:42;;;;;;;14.82;3.42;;;;;;;14.50;60.99;100696.88;4979810;28;119945;-76
2022/11/03 07:32:34;;;;;;;13.55;4.03;;;;;;;14.59;60.96;100698.78;4981433;28;120359;-76
2022/11/03 07:35:14;;;;;;;16.00;3.88;;;;;;;14.62;60.99;100693.06;4978385;28;120573;-76
2022/11/03 07:37:40;;;;;;;12.70;3.50;;;;;;;14.65;60.40;100686.56;4983323;28;119505;-76
2022/11/03 07:40:12;;;;;;;14.25;3.50;;;;;;;14.64;60.84;100695.34;4979105;28;119631;-76
2022/11/03 07:42:41;;;;;;;14.68;3.47;;;;;;;14.68;60.34;100676.59;4983374;28;119509;-76
2022/11/03 07:45:30;;;;;;;14.98;3.33;;;;;;;14.71;60.50;100687.44;4978368;28;119419;-75
2022/11/03 07:47:55;;;;;;;14.05;3.63;;;;;;;14.73;60.18;100682.19;4987694;28;119952;-76
2022/11/03 07:50:21;;;;;;;15.77;3.70;;;;;;;14.79;60.44;100681.53;4985686;28;119881;-76
2022/11/03 07:52:47;;;;;;;12.37;3.60;;;;;;;14.79;60.36;100668.47;4978873;28;121089;-74
2022/11/03 07:55:13;;;;;;;15.70;3.67;;;;;;;14.78;60.06;100672.47;4989699;28;119425;-76
2022/11/03 07:57:39;;;;;;;13.40;3.47;;;;;;;14.80;60.32;100672.00;4972537;28;120992;-74
2022/11/03 08:00:13;;;;;;;15.27;3.47;;;;;;;14.80;60.36;100663.72;4977615;28;119851;-76
2022/11/03 08:02:55;;;;;;;13.07;4.00;;;;;;;14.79;59.42;100662.19;4997149;27;119452;-75
2022/11/03 08:05:21;;;;;;;16.40;3.90;;;;;;;14.80;60.72;100658.19;4978819;28;119443;-75
2022/11/03 08:08:00;;;;;;;16.47;3.80;;;;;;;14.78;60.60;100653.16;4999724;27;120138;-76
2022/11/03 08:10:26;;;;;;;14.32;3.70;;;;;;;14.83;60.00;100659.97;4985386;28;119907;-75
2022/11/03 08:12:51;;;;;;;16.25;3.97;;;;;;;14.80;59.76;100658.19;4984373;28;119822;-75
2022/11/03 08:15:17;;;;;;;11.20;3.30;;;;;;;14.77;59.99;100664.66;4986333;28;120000;-76
2022/11/03 08:17:43;;;;;;;13.15;3.67;;;;;;;14.76;60.50;100652.09;4989933;28;119759;-76
2022/11/03 08:20:09;;;;;;;11.35;3.65;;;;;;;14.81;60.87;100654.94;4987147;28;119616;-75
2022/11/03 08:22:35;;;;;;;16.30;3.90;;;;;;;14.84;61.29;100653.22;4988082;28;119784;-75
2022/11/03 08:25:00;;;;;;;14.03;3.30;;;;;;;14.84;60.64;100661.50;4985177;28;119504;-74
2022/11/03 08:27:26;;;;;;;13.47;3.60;;;;;;;14.87;60.67;100660.53;4984559;28;119510;-76
2022/11/03 08:29:57;;;;;;;13.63;3.63;;;;;;;14.85;60.60;100652.75;4982613;28;119668;-76
2022/11/03 08:32:23;;;;;;;14.30;3.60;;;;;;;14.87;60.88;100653.03;4991464;28;119916;-75
2022/11/03 08:34:48;;;;;;;12.43;3.57;;;;;;;14.92;60.51;100649.59;4986761;28;120365;-75
2022/11/03 08:37:14;;;;;;;14.90;3.90;;;;;;;14.97;60.67;100648.91;4971371;28;119910;-74
2022/11/03 08:40:01;;;;;;;14.07;3.97;;;;;;;14.99;60.37;100645.66;4964818;28;119941;-76
2022/11/03 08:42:27;;;;;;;15.25;3.55;;;;;;;15.01;60.77;100643.94;4977082;28;119555;-76
2022/11/03 08:44:52;;;;;;;12.85;3.40;;;;;;;15.08;60.74;100651.06;4971963;28;119934;-75
2022/11/03 08:47:18;;;;;;;17.55;4.18;;;;;;;15.11;60.71;100650.09;4992261;28;120042;-75
2022/11/03 08:49:44;;;;;;;16.10;4.00;;;;;;;15.18;60.05;100643.41;4984184;28;119991;-76
2022/11/03 08:52:10;;;;;;;15.43;3.60;;;;;;;15.26;60.63;100648.03;4981755;28;119434;-76
2022/11/03 08:54:35;;;;;;;15.57;3.63;;;;;;;15.32;60.59;100642.56;4980727;28;119397;-75
2022/11/03 08:57:01;;;;;;;14.97;3.73;;;;;;;15.36;60.29;100640.34;4985992;28;120921;-75
2022/11/03 08:59:27;;;;;;;13.37;3.37;;;;;;;15.36;59.77;100641.09;4982702;28;120201;-75
2022/11/03 09:01:52;;;;;;;13.13;3.13;;;;;;;15.43;61.04;100636.44;4980816;28;119920;-75
2022/11/03 09:04:18;;;;;;;15.10;3.60;;;;;;;15.46;59.83;100627.16;4984576;28;119639;-76
2022/11/03 09:06:44;;;;;;;16.40;3.30;;;;;;;15.50;60.47;100622.94;4984978;28;119955;-76
2022/11/03 09:09:09;;;;;;;13.33;3.70;;;;;;;15.57;60.00;100613.44;4983866;28;120171;-76
2022/11/03 09:11:35;;;;;;;16.13;3.90;;;;;;;15.52;60.62;100603.09;4981302;28;119051;-76
2022/11/03 09:14:01;;;;;;;13.97;3.93;;;;;;;15.66;59.92;100605.03;4986475;28;120746;-75
2022/11/03 09:16:26;;;;;;;13.07;3.27;;;;;;;15.63;59.77;100589.44;4983777;28;119778;-76
2022/11/03 09:19:12;;;;;;;14.32;3.88;;;;;;;15.67;59.98;100592.75;4984703;28;120107;-75
2022/11/03 09:21:38;;;;;;;13.27;3.63;;;;;;;15.71;59.83;100592.53;4983393;28;119777;-76
2022/11/03 09:24:04;;;;;;;16.23;4.03;;;;;;;15.71;59.24;100579.44;4985689;28;119866;-76
2022/11/03 09:26:30;;;;;;;14.00;3.55;;;;;;;15.69;59.77;100570.13;4985078;28;119834;-75
2022/11/03 09:29:24;;;;;;;15.43;3.95;;;;;;;15.75;59.28;100584.75;4973122;28;119762;-76
2022/11/03 09:31:50;;;;;;;14.30;3.92;;;;;;;15.76;59.88;100587.03;4984199;28;119837;-76
2022/11/03 09:34:19;;;;;;;14.35;3.92;;;;;;;15.76;60.22;100575.22;4984092;28;121815;-75
2022/11/03 09:36:45;;;;;;;14.33;4.03;;;;;;;15.83;59.87;100569.25;4988161;28;119820;-75
2022/11/03 09:39:10;;;;;;;18.77;4.00;;;;;;;15.86;59.56;100565.53;4985851;28;119991;-76
2022/11/03 09:41:36;;;;;;;14.52;3.70;;;;;;;15.92;60.36;100561.56;4982807;28;119765;-74
2022/11/03 09:44:02;;;;;;;14.18;3.83;;;;;;;15.96;59.96;100573.16;4982697;28;119757;-75
2022/11/03 09:46:29;;;;;;;14.32;3.67;;;;;;;16.04;59.88;100561.63;4980247;28;120488;-75
2022/11/03 09:48:55;;;;;;;13.07;4.00;;;;;;;16.08;59.64;100564.91;4984439;28;121204;-75
2022/11/03 09:51:24;;;;;;;15.40;4.22;;;;;;;16.12;60.25;100551.66;4994674;27;120513;-76
2022/11/03 09:53:50;;;;;;;14.55;3.92;;;;;;;16.21;59.90;100554.97;4981041;28;120050;-76
2022/11/03 09:56:20;;;;;;;14.83;3.77;;;;;;;16.25;60.16;100554.75;4968257;28;119498;-76
2022/11/03 09:58:46;;;;;;;13.27;3.83;;;;;;;16.30;59.18;100556.78;4987757;28;119943;-76
2022/11/03 10:01:12;;;;;;;12.82;3.53;;;;;;;16.34;59.04;100546.28;4984632;28;119631;-76
2022/11/03 10:03:40;;;;;;;13.50;3.72;;;;;;;16.35;59.35;100547.78;4982297;28;119709;-75
2022/11/03 10:06:06;;;;;;;14.20;3.72;;;;;;;16.42;59.18;100558.41;4984323;28;120071;-76
2022/11/03 10:08:36;;;;;;;14.90;3.92;;;;;;;16.47;59.57;100560.44;4986373;28;119830;-75
2022/11/03 10:11:05;;;;;;;12.85;3.83;;;;;;;16.47;58.73;100554.91;4985882;28;119570;-75
2022/11/03 10:13:41;;;;;;;13.70;3.77;;;;;;;16.46;58.94;100558.91;4980974;28;119611;-75
2022/11/03 10:16:14;;;;;;;14.52;3.90;;;;;;;16.43;58.91;100546.06;4985880;28;120783;-76
2022/11/03 10:18:40;;;;;;;11.90;3.63;;;;;;;16.50;59.25;100556.69;4986703;28;120331;-76
2022/11/03 10:21:18;;;;;;;15.43;3.77;;;;;;;16.55;59.18;100553.19;4990971;28;119490;-75
2022/11/03 10:23:44;;;;;;;18.45;4.15;;;;;;;16.53;58.61;100552.91;4981051;28;120000;-76
2022/11/03 10:26:17;;;;;;;13.07;3.70;;;;;;;16.54;58.59;100550.91;4982576;28;120408;-75
2022/11/03 10:28:57;;;;;;;13.75;4.10;;;;;;;16.54;59.05;100539.81;4983416;28;119925;-75
2022/11/03 10:31:40;;;;;;;14.35;3.85;;;;;;;16.55;59.69;100542.09;4981075;28;120007;-76
2022/11/03 10:34:36;;;;;;;12.88;3.83;;;;;;;16.63;59.30;100536.13;4978969;28;120437;-75
2022/11/03 10:37:19;;;;;;;15.63;4.07;;;;;;;16.71;58.95;100537.19;4981008;28;119901;-75
2022/11/03 10:39:46;;;;;;;13.40;3.88;;;;;;;16.78;59.03;100531.94;4983551;28;120534;-76
2022/11/03 10:42:18;;;;;;;15.40;4.00;;;;;;;16.89;59.08;100534.00;4981041;28;120466;-76
2022/11/03 10:44:44;;;;;;;14.23;3.83;;;;;;;16.90;58.21;100521.66;4983528;28;119649;-76
2022/11/03 10:47:22;;;;;;;15.90;4.03;;;;;;;16.94;58.22;100524.19;4983693;28;119870;-76
2022/11/03 10:49:48;;;;;;;14.50;4.13;;;;;;;16.91;58.19;100508.56;4983983;28;119547;-75
2022/11/03 10:52:22;;;;;;;14.53;4.10;;;;;;;17.02;58.94;100505.81;4983791;28;119651;-75
2022/11/03 10:54:53;;;;;;;14.95;3.60;;;;;;;17.04;58.39;100506.88;4982002;28;120650;-74
2022/11/03 10:57:23;;;;;;;13.07;3.65;;;;;;;17.10;58.72;100510.41;4982999;28;120346;-76
2022/11/03 10:59:51;;;;;;;12.75;3.67;;;;;;;17.10;57.58;100515.94;4982520;28;121335;-76
2022/11/03 11:02:20;;;;;;;12.02;3.60;;;;;;;17.08;58.15;100512.91;4980399;28;121393;-75
2022/11/03 11:04:49;;;;;;;15.33;4.03;;;;;;;17.09;57.24;100508.13;4977932;28;119459;-76
2022/11/03 11:07:23;;;;;;;13.13;3.63;;;;;;;17.09;57.52;100499.81;4985853;28;119888;-76
2022/11/03 11:09:49;;;;;;;12.18;3.33;;;;;;;17.14;57.50;100497.06;4982382;28;120153;-75
2022/11/03 11:12:23;;;;;;;15.98;4.13;;;;;;;17.18;57.35;100482.94;4981161;28;120477;-76
2022/11/03 11:14:58;;;;;;;14.57;3.80;;;;;;;17.24;58.12;100486.47;4959691;28;119823;-75
2022/11/03 11:17:36;;;;;;;13.65;3.70;;;;;;;17.31;57.53;100488.03;4986574;28;120075;-75
2022/11/03 11:20:17;;;;;;;12.48;3.67;;;;;;;17.30;57.04;100486.50;4985019;28;119722;-76
2022/11/03 11:22:43;;;;;;;12.77;3.70;;;;;;;17.32;57.29;100481.22;4981384;28;120162;-75
2022/11/03 11:25:09;;;;;;;13.37;3.70;;;;;;;17.33;57.51;100480.72;4979258;28;120720;-76
2022/11/03 11:27:55;;;;;;;13.10;3.40;;;;;;;17.39;57.74;100475.19;4980670;28;119847;-76
2022/11/03 11:30:21;;;;;;;13.27;3.72;;;;;;;17.45;57.12;100479.47;4980206;28;120062;-75
2022/11/03 11:33:00;;;;;;;12.15;3.67;;;;;;;17.46;57.13;100480.97;4984788;28;120149;-76
2022/11/03 11:35:25;;;;;;;11.73;3.33;;;;;;;17.50;57.61;100469.63;4983297;28;119586;-75
2022/11/03 11:37:53;;;;;;;18.30;3.92;;;;;;;17.53;57.73;100471.41;4978847;28;120007;-76
2022/11/03 11:40:18;;;;;;;15.40;3.90;;;;;;;17.58;58.10;100473.44;4982676;28;120100;-75
2022/11/03 11:43:05;;;;;;;13.30;3.90;;;;;;;17.62;57.60;100465.63;4979902;28;119902;-76